sensor_id;sensor_type;location;lat;lon;timestamp;pressure;altitude;pressure_sealevel;temperature;humidity
4143;BME280;2085;51.052;6.958;2022-07-22T00:00:28;101713.06;;;18.24;61.68
4143;BME280;2085;51.052;6.958;2022-07-22T00:02:55;101719.38;;;18.23;61.73
4143;BME280;2085;51.052;6.958;2022-07-22T00:05:21;101722.16;;;18.22;61.59
4143;BME280;2085;51.052;6.958;2022-07-22T00:07:49;101718.63;;;18.21;61.81
4143;BME280;2085;51.052;6.958;2022-07-22T00:10:16;101722.25;;;18.20;61.86
4143;BME280;2085;51.052;6.958;2022-07-22T00:12:43;101719.56;;;18.20;61.83
4143;BME280;2085;51.052;6.958;2022-07-22T00:15:10;101717.84;;;18.19;61.83
4143;BME280;2085;51.052;6.958;2022-07-22T00:17:36;101717.97;;;18.18;61.35
4143;BME280;2085;51.052;6.958;2022-07-22T00:20:04;101713.69;;;18.15;62.01
4143;BME280;2085;51.052;6.958;2022-07-22T00:22:31;101708.47;;;18.14;61.88
4143;BME280;2085;51.052;6.958;2022-07-22T00:24:59;101719.22;;;18.12;61.81
4143;BME280;2085;51.052;6.958;2022-07-22T00:27:26;101715.69;;;18.12;62.17
4143;BME280;2085;51.052;6.958;2022-07-22T00:29:52;101715.78;;;18.10;62.13
4143;BME280;2085;51.052;6.958;2022-07-22T00:32:19;101718.47;;;18.10;62.01
4143;BME280;2085;51.052;6.958;2022-07-22T00:34:45;101714.09;;;18.09;62.06
4143;BME280;2085;51.052;6.958;2022-07-22T00:37:13;101706.19;;;18.08;62.04
4143;BME280;2085;51.052;6.958;2022-07-22T00:39:39;101711.53;;;18.08;62.32
4143;BME280;2085;51.052;6.958;2022-07-22T00:42:07;101713.34;;;18.07;62.07
4143;BME280;2085;51.052;6.958;2022-07-22T00:44:34;101711.53;;;18.08;62.09
4143;BME280;2085;51.052;6.958;2022-07-22T00:47:01;101712.47;;;18.07;62.24
4143;BME280;2085;51.052;6.958;2022-07-22T00:49:28;101709.81;;;18.07;62.16
4143;BME280;2085;51.052;6.958;2022-07-22T00:51:55;101710.69;;;18.07;62.15
4143;BME280;2085;51.052;6.958;2022-07-22T00:54:21;101708.97;;;18.06;62.15
4143;BME280;2085;51.052;6.958;2022-07-22T00:56:48;101707.28;;;18.05;61.96
4143;BME280;2085;51.052;6.958;2022-07-22T00:59:17;101699.28;;;18.05;62.15
4143;BME280;2085;51.052;6.958;2022-07-22T01:01:43;101712.59;;;18.05;62.15
4143;BME280;2085;51.052;6.958;2022-07-22T01:04:10;101711.63;;;18.06;62.14
4143;BME280;2085;51.052;6.958;2022-07-22T01:06:36;101706.41;;;18.05;62.08
4143;BME280;2085;51.052;6.958;2022-07-22T01:09:03;101711.84;;;18.03;62.11
4143;BME280;2085;51.052;6.958;2022-07-22T01:11:30;101707.44;;;18.02;62.11
4143;BME280;2085;51.052;6.958;2022-07-22T01:13:57;101700.41;;;18.01;62.30
4143;BME280;2085;51.052;6.958;2022-07-22T01:16:25;101706.72;;;18.00;62.28
4143;BME280;2085;51.052;6.958;2022-07-22T01:18:52;101704.06;;;18.00;62.13
4143;BME280;2085;51.052;6.958;2022-07-22T01:21:20;101698.72;;;18.00;62.13
4143;BME280;2085;51.052;6.958;2022-07-22T01:23:47;101704.91;;;18.01;62.18
4143;BME280;2085;51.052;6.958;2022-07-22T01:26:14;101705.94;;;17.98;62.32
4143;BME280;2085;51.052;6.958;2022-07-22T01:28:41;101704.22;;;17.97;62.34
4143;BME280;2085;51.052;6.958;2022-07-22T01:31:08;101699.97;;;17.95;62.39
4143;BME280;2085;51.052;6.958;2022-07-22T01:33:35;101708.06;;;17.93;62.50
4143;BME280;2085;51.052;6.958;2022-07-22T01:36:02;101702.06;;;17.90;62.36
4143;BME280;2085;51.052;6.958;2022-07-22T01:38:30;101703.03;;;17.89;62.41
4143;BME280;2085;51.052;6.958;2022-07-22T01:40:57;101701.22;;;17.89;62.50
4143;BME280;2085;51.052;6.958;2022-07-22T01:43:24;101696.84;;;17.88;62.43
4143;BME280;2085;51.052;6.958;2022-07-22T01:45:52;101693.22;;;17.89;62.52
4143;BME280;2085;51.052;6.958;2022-07-22T01:48:20;101696.00;;;17.88;62.48
4143;BME280;2085;51.052;6.958;2022-07-22T01:50:47;101694.28;;;17.87;62.25
4143;BME280;2085;51.052;6.958;2022-07-22T01:53:14;101698.75;;;17.86;62.64
4143;BME280;2085;51.052;6.958;2022-07-22T01:55:42;101689.06;;;17.85;62.60
4143;BME280;2085;51.052;6.958;2022-07-22T01:58:09;101697.03;;;17.85;62.70
4143;BME280;2085;51.052;6.958;2022-07-22T02:00:36;101691.63;;;17.87;62.62
4143;BME280;2085;51.052;6.958;2022-07-22T02:03:03;101691.72;;;17.85;62.73
4143;BME280;2085;51.052;6.958;2022-07-22T02:05:30;101693.44;;;17.86;62.56
4143;BME280;2085;51.052;6.958;2022-07-22T02:07:59;101692.47;;;17.87;62.57
4143;BME280;2085;51.052;6.958;2022-07-22T02:10:26;101693.34;;;17.88;62.64
4143;BME280;2085;51.052;6.958;2022-07-22T02:12:54;101688.84;;;17.88;62.66
4143;BME280;2085;51.052;6.958;2022-07-22T02:15:20;101684.38;;;17.89;62.66
4143;BME280;2085;51.052;6.958;2022-07-22T02:17:47;101688.84;;;17.88;62.68
4143;BME280;2085;51.052;6.958;2022-07-22T02:20:14;101687.16;;;17.87;62.64
4143;BME280;2085;51.052;6.958;2022-07-22T02:22:40;101684.59;;;17.86;62.56
4143;BME280;2085;51.052;6.958;2022-07-22T02:25:07;101690.97;;;17.83;62.83
4143;BME280;2085;51.052;6.958;2022-07-22T02:27:34;101684.78;;;17.82;62.82
4143;BME280;2085;51.052;6.958;2022-07-22T02:30:03;101679.56;;;17.81;62.82
4143;BME280;2085;51.052;6.958;2022-07-22T02:32:30;101683.94;;;17.82;62.82
4143;BME280;2085;51.052;6.958;2022-07-22T02:34:57;101686.59;;;17.82;62.85
4143;BME280;2085;51.052;6.958;2022-07-22T02:37:24;101693.63;;;17.83;62.72
4143;BME280;2085;51.052;6.958;2022-07-22T02:39:51;101685.75;;;17.81;62.71
4143;BME280;2085;51.052;6.958;2022-07-22T02:42:17;101676.88;;;17.81;62.79
4143;BME280;2085;51.052;6.958;2022-07-22T02:44:44;101682.22;;;17.81;62.51
4143;BME280;2085;51.052;6.958;2022-07-22T02:47:12;101685.81;;;17.80;62.81
4143;BME280;2085;51.052;6.958;2022-07-22T02:49:38;101688.50;;;17.80;62.84
4143;BME280;2085;51.052;6.958;2022-07-22T02:52:05;101684.13;;;17.79;62.87
4143;BME280;2085;51.052;6.958;2022-07-22T02:54:31;101680.63;;;17.78;62.81
4143;BME280;2085;51.052;6.958;2022-07-22T02:56:58;101685.09;;;17.78;63.00
4143;BME280;2085;51.052;6.958;2022-07-22T02:59:25;101685.94;;;17.78;62.87
4143;BME280;2085;51.052;6.958;2022-07-22T03:01:51;101686.78;;;17.79;62.92
4143;BME280;2085;51.052;6.958;2022-07-22T03:04:19;101689.44;;;17.79;62.81
4143;BME280;2085;51.052;6.958;2022-07-22T03:06:46;101683.38;;;17.77;62.83
4143;BME280;2085;51.052;6.958;2022-07-22T03:09:12;101683.28;;;17.78;62.95
4143;BME280;2085;51.052;6.958;2022-07-22T03:11:39;101687.84;;;17.76;62.90
4143;BME280;2085;51.052;6.958;2022-07-22T03:14:05;101688.78;;;17.75;62.78
4143;BME280;2085;51.052;6.958;2022-07-22T03:16:32;101687.94;;;17.75;62.92
4143;BME280;2085;51.052;6.958;2022-07-22T03:18:58;101687.94;;;17.75;62.92
4143;BME280;2085;51.052;6.958;2022-07-22T03:21:26;101691.56;;;17.74;62.83
4143;BME280;2085;51.052;6.958;2022-07-22T03:23:53;101689.84;;;17.73;63.25
4143;BME280;2085;51.052;6.958;2022-07-22T03:26:20;101689.00;;;17.72;63.02
4143;BME280;2085;51.052;6.958;2022-07-22T03:28:46;101689.00;;;17.72;62.85
4143;BME280;2085;51.052;6.958;2022-07-22T03:31:13;101695.19;;;17.73;63.01
4143;BME280;2085;51.052;6.958;2022-07-22T03:33:40;101689.84;;;17.73;62.85
4143;BME280;2085;51.052;6.958;2022-07-22T03:36:06;101679.28;;;17.71;62.90
4143;BME280;2085;51.052;6.958;2022-07-22T03:38:35;101678.44;;;17.71;62.99
4143;BME280;2085;51.052;6.958;2022-07-22T03:41:02;101676.84;;;17.68;63.04
4143;BME280;2085;51.052;6.958;2022-07-22T03:43:29;101680.66;;;17.64;63.16
4143;BME280;2085;51.052;6.958;2022-07-22T03:45:55;101677.22;;;17.62;63.10
4143;BME280;2085;51.052;6.958;2022-07-22T03:48:22;101682.75;;;17.59;63.19
4143;BME280;2085;51.052;6.958;2022-07-22T03:50:48;101676.75;;;17.56;63.10
4143;BME280;2085;51.052;6.958;2022-07-22T03:53:16;101676.81;;;17.54;63.20
4143;BME280;2085;51.052;6.958;2022-07-22T03:55:44;101683.94;;;17.54;63.25
4143;BME280;2085;51.052;6.958;2022-07-22T03:58:11;101682.22;;;17.53;63.33
4143;BME280;2085;51.052;6.958;2022-07-22T04:00:37;101683.09;;;17.53;63.34
4143;BME280;2085;51.052;6.958;2022-07-22T04:03:04;101677.69;;;17.55;63.31
4143;BME280;2085;51.052;6.958;2022-07-22T04:05:30;101688.22;;;17.56;63.26
4143;BME280;2085;51.052;6.958;2022-07-22T04:07:57;101689.94;;;17.57;63.25
4143;BME280;2085;51.052;6.958;2022-07-22T04:10:24;101683.69;;;17.58;63.24
4143;BME280;2085;51.052;6.958;2022-07-22T04:12:52;101676.56;;;17.59;63.17
4143;BME280;2085;51.052;6.958;2022-07-22T04:15:18;101669.50;;;17.58;63.17
4143;BME280;2085;51.052;6.958;2022-07-22T04:17:45;101673.03;;;17.58;63.24
4143;BME280;2085;51.052;6.958;2022-07-22T04:20:11;101678.28;;;17.60;63.22
4143;BME280;2085;51.052;6.958;2022-07-22T04:22:38;101677.41;;;17.59;63.09
4143;BME280;2085;51.052;6.958;2022-07-22T04:25:06;101677.41;;;17.59;63.17
4143;BME280;2085;51.052;6.958;2022-07-22T04:27:33;101677.41;;;17.59;63.27
4143;BME280;2085;51.052;6.958;2022-07-22T04:30:01;101670.28;;;17.60;63.37
4143;BME280;2085;51.052;6.958;2022-07-22T04:32:27;101673.69;;;17.62;63.32
4143;BME280;2085;51.052;6.958;2022-07-22T04:34:54;101661.25;;;17.62;63.16
4143;BME280;2085;51.052;6.958;2022-07-22T04:37:20;101671.81;;;17.64;63.29
4143;BME280;2085;51.052;6.958;2022-07-22T04:39:47;101667.22;;;17.66;63.29
4143;BME280;2085;51.052;6.958;2022-07-22T04:42:13;101668.94;;;17.67;63.25
4143;BME280;2085;51.052;6.958;2022-07-22T04:44:40;101667.03;;;17.69;63.06
4143;BME280;2085;51.052;6.958;2022-07-22T04:47:08;101666.84;;;17.72;63.10
4143;BME280;2085;51.052;6.958;2022-07-22T04:49:34;101670.25;;;17.74;63.21
4143;BME280;2085;51.052;6.958;2022-07-22T04:52:01;101674.63;;;17.75;63.25
4143;BME280;2085;51.052;6.958;2022-07-22T04:54:28;101671.00;;;17.76;63.18
4143;BME280;2085;51.052;6.958;2022-07-22T04:56:54;101677.19;;;17.76;63.30
4143;BME280;2085;51.052;6.958;2022-07-22T04:59:21;101677.84;;;17.80;63.23
4143;BME280;2085;51.052;6.958;2022-07-22T05:01:47;101674.13;;;17.82;63.22
4143;BME280;2085;51.052;6.958;2022-07-22T05:04:15;101679.25;;;17.86;63.22
4143;BME280;2085;51.052;6.958;2022-07-22T05:06:42;101687.16;;;17.87;63.37
4143;BME280;2085;51.052;6.958;2022-07-22T05:09:08;101685.44;;;17.86;63.15
4143;BME280;2085;51.052;6.958;2022-07-22T05:11:35;101683.00;;;17.83;63.10
4143;BME280;2085;51.052;6.958;2022-07-22T05:14:01;101688.31;;;17.83;63.09
4143;BME280;2085;51.052;6.958;2022-07-22T05:16:28;101688.19;;;17.84;63.27
4143;BME280;2085;51.052;6.958;2022-07-22T05:18:55;101687.16;;;17.87;63.26
4143;BME280;2085;51.052;6.958;2022-07-22T05:21:23;101689.69;;;17.89;63.24
4143;BME280;2085;51.052;6.958;2022-07-22T05:23:49;101693.13;;;17.91;63.02
4143;BME280;2085;51.052;6.958;2022-07-22T05:26:16;101686.00;;;17.91;63.30
4143;BME280;2085;51.052;6.958;2022-07-22T05:28:45;101686.84;;;17.92;63.28
4143;BME280;2085;51.052;6.958;2022-07-22T05:31:12;101679.69;;;17.92;63.29
4143;BME280;2085;51.052;6.958;2022-07-22T05:33:38;101690.34;;;17.92;63.17
4143;BME280;2085;51.052;6.958;2022-07-22T05:36:06;101685.03;;;17.92;63.24
4143;BME280;2085;51.052;6.958;2022-07-22T05:38:36;101685.03;;;17.92;63.23
4143;BME280;2085;51.052;6.958;2022-07-22T05:41:02;101685.03;;;17.92;63.34
4143;BME280;2085;51.052;6.958;2022-07-22T05:43:29;101687.03;;;17.89;63.29
4143;BME280;2085;51.052;6.958;2022-07-22T05:45:56;101682.69;;;17.88;63.12
4143;BME280;2085;51.052;6.958;2022-07-22T05:48:22;101685.22;;;17.89;63.38
4143;BME280;2085;51.052;6.958;2022-07-22T05:50:49;101678.88;;;17.92;63.42
4143;BME280;2085;51.052;6.958;2022-07-22T05:53:15;101680.38;;;17.96;63.38
4143;BME280;2085;51.052;6.958;2022-07-22T05:55:43;101684.53;;;18.00;63.33
4143;BME280;2085;51.052;6.958;2022-07-22T05:58:10;101680.81;;;18.02;63.17
4143;BME280;2085;51.052;6.958;2022-07-22T06:00:37;101678.91;;;18.04;63.24
4143;BME280;2085;51.052;6.958;2022-07-22T06:03:04;101675.81;;;18.10;63.49
4143;BME280;2085;51.052;6.958;2022-07-22T06:05:31;101672.97;;;18.13;63.45
4143;BME280;2085;51.052;6.958;2022-07-22T06:07:58;101680.03;;;18.14;63.29
4143;BME280;2085;51.052;6.958;2022-07-22T06:10:24;101679.03;;;18.15;63.22
4143;BME280;2085;51.052;6.958;2022-07-22T06:12:52;101678.75;;;18.20;63.32
4143;BME280;2085;51.052;6.958;2022-07-22T06:15:19;101673.22;;;18.23;63.14
4143;BME280;2085;51.052;6.958;2022-07-22T06:17:45;101672.06;;;18.27;63.31
4143;BME280;2085;51.052;6.958;2022-07-22T06:20:12;101679.75;;;18.32;63.12
4143;BME280;2085;51.052;6.958;2022-07-22T06:22:39;101685.72;;;18.35;63.25
4143;BME280;2085;51.052;6.958;2022-07-22T06:25:06;101686.38;;;18.39;63.20
4143;BME280;2085;51.052;6.958;2022-07-22T06:27:33;101678.16;;;18.42;63.35
4143;BME280;2085;51.052;6.958;2022-07-22T06:30:01;101687.69;;;18.46;63.20
4143;BME280;2085;51.052;6.958;2022-07-22T06:32:28;101681.19;;;18.50;62.93
4143;BME280;2085;51.052;6.958;2022-07-22T06:34:54;101685.44;;;18.52;63.09
4143;BME280;2085;51.052;6.958;2022-07-22T06:37:21;101676.44;;;18.55;63.03
4143;BME280;2085;51.052;6.958;2022-07-22T06:39:48;101675.44;;;18.56;62.98
4143;BME280;2085;51.052;6.958;2022-07-22T06:42:14;101676.94;;;18.60;62.99
4143;BME280;2085;51.052;6.958;2022-07-22T06:44:41;101682.09;;;18.63;62.84
4143;BME280;2085;51.052;6.958;2022-07-22T06:47:09;101674.81;;;18.65;63.07
4143;BME280;2085;51.052;6.958;2022-07-22T06:49:35;101676.31;;;18.69;63.03
4143;BME280;2085;51.052;6.958;2022-07-22T06:52:02;101677.84;;;18.73;62.94
4143;BME280;2085;51.052;6.958;2022-07-22T06:54:29;101671.19;;;18.79;62.86
4143;BME280;2085;51.052;6.958;2022-07-22T06:56:55;101678.03;;;18.83;62.80
4143;BME280;2085;51.052;6.958;2022-07-22T06:59:23;101672.28;;;18.89;62.78
4143;BME280;2085;51.052;6.958;2022-07-22T07:01:50;101671.00;;;18.94;62.75
4143;BME280;2085;51.052;6.958;2022-07-22T07:04:17;101667.56;;;18.92;62.66
4143;BME280;2085;51.052;6.958;2022-07-22T07:06:44;101676.53;;;18.91;62.74
4143;BME280;2085;51.052;6.958;2022-07-22T07:09:11;101661.38;;;18.92;62.52
4143;BME280;2085;51.052;6.958;2022-07-22T07:11:38;101666.53;;;18.95;62.71
4143;BME280;2085;51.052;6.958;2022-07-22T07:14:04;101664.72;;;18.95;62.69
4143;BME280;2085;51.052;6.958;2022-07-22T07:16:31;101670.06;;;18.95;62.71
4143;BME280;2085;51.052;6.958;2022-07-22T07:18:57;101670.06;;;18.95;62.54
4143;BME280;2085;51.052;6.958;2022-07-22T07:21:26;101671.72;;;18.96;62.55
4143;BME280;2085;51.052;6.958;2022-07-22T07:23:52;101668.88;;;18.99;62.74
4143;BME280;2085;51.052;6.958;2022-07-22T07:26:19;101672.25;;;19.01;62.40
4143;BME280;2085;51.052;6.958;2022-07-22T07:28:46;101665.03;;;19.03;62.54
4143;BME280;2085;51.052;6.958;2022-07-22T07:31:12;101657.75;;;19.05;62.49
4143;BME280;2085;51.052;6.958;2022-07-22T07:33:39;101669.09;;;19.09;62.32
4143;BME280;2085;51.052;6.958;2022-07-22T07:36:06;101665.22;;;19.13;62.49
4143;BME280;2085;51.052;6.958;2022-07-22T07:38:34;101654.97;;;19.20;62.52
4143;BME280;2085;51.052;6.958;2022-07-22T07:41:01;101663.28;;;19.28;62.52
4143;BME280;2085;51.052;6.958;2022-07-22T07:43:28;101673.28;;;19.37;62.38
4143;BME280;2085;51.052;6.958;2022-07-22T07:45:55;101654.09;;;19.44;62.37
4143;BME280;2085;51.052;6.958;2022-07-22T07:48:22;101655.25;;;19.53;62.13
4143;BME280;2085;51.052;6.958;2022-07-22T07:50:48;101654.59;;;19.62;62.22
4143;BME280;2085;51.052;6.958;2022-07-22T07:53:15;101657.66;;;19.69;61.99
4143;BME280;2085;51.052;6.958;2022-07-22T07:55:44;101651.88;;;19.75;62.12
4143;BME280;2085;51.052;6.958;2022-07-22T07:58:10;101655.91;;;19.80;62.09
4143;BME280;2085;51.052;6.958;2022-07-22T08:00:37;101657.38;;;19.84;62.06
4143;BME280;2085;51.052;6.958;2022-07-22T08:03:05;101656.28;;;19.87;62.14
4143;BME280;2085;51.052;6.958;2022-07-22T08:05:31;101655.22;;;19.89;61.86
4143;BME280;2085;51.052;6.958;2022-07-22T08:07:58;101653.53;;;19.88;62.10
4143;BME280;2085;51.052;6.958;2022-07-22T08:10:25;101663.25;;;19.89;62.01
4143;BME280;2085;51.052;6.958;2022-07-22T08:12:53;101656.91;;;19.90;62.06
4143;BME280;2085;51.052;6.958;2022-07-22T08:15:21;101655.00;;;19.92;62.17
4143;BME280;2085;51.052;6.958;2022-07-22T08:17:48;101655.00;;;19.92;62.22
4143;BME280;2085;51.052;6.958;2022-07-22T08:20:14;101656.72;;;19.93;62.10
4143;BME280;2085;51.052;6.958;2022-07-22T08:22:41;101649.41;;;19.95;62.06
4143;BME280;2085;51.052;6.958;2022-07-22T08:25:08;101646.53;;;19.98;62.07
4143;BME280;2085;51.052;6.958;2022-07-22T08:27:34;101656.88;;;20.03;61.99
4143;BME280;2085;51.052;6.958;2022-07-22T08:30:04;101651.91;;;20.10;62.03
4143;BME280;2085;51.052;6.958;2022-07-22T08:32:31;101661.41;;;20.14;62.13
4143;BME280;2085;51.052;6.958;2022-07-22T08:34:58;101657.53;;;20.18;62.25
4143;BME280;2085;51.052;6.958;2022-07-22T08:37:24;101658.72;;;20.14;61.86
4143;BME280;2085;51.052;6.958;2022-07-22T08:39:51;101661.88;;;20.08;61.83
4143;BME280;2085;51.052;6.958;2022-07-22T08:42:19;101657.84;;;20.02;62.04
4143;BME280;2085;51.052;6.958;2022-07-22T08:44:47;101662.34;;;20.01;62.08
4143;BME280;2085;51.052;6.958;2022-07-22T08:47:19;101670.34;;;20.01;62.12
4143;BME280;2085;51.052;6.958;2022-07-22T08:49:46;101661.38;;;20.02;62.03
4143;BME280;2085;51.052;6.958;2022-07-22T08:52:13;101660.41;;;20.03;62.07
4143;BME280;2085;51.052;6.958;2022-07-22T08:54:39;101655.16;;;20.02;61.93
4143;BME280;2085;51.052;6.958;2022-07-22T08:57:06;101666.72;;;20.02;62.02
4143;BME280;2085;51.052;6.958;2022-07-22T08:59:33;101663.78;;;19.94;61.99
4143;BME280;2085;51.052;6.958;2022-07-22T09:02:04;101659.09;;;19.85;61.81
4143;BME280;2085;51.052;6.958;2022-07-22T09:04:50;101650.78;;;19.77;61.95
4143;BME280;2085;51.052;6.958;2022-07-22T09:07:23;101664.13;;;19.77;62.15
4143;BME280;2085;51.052;6.958;2022-07-22T09:09:50;101659.31;;;19.82;62.06
4143;BME280;2085;51.052;6.958;2022-07-22T09:12:17;101648.06;;;19.90;62.04
4143;BME280;2085;51.052;6.958;2022-07-22T09:14:44;101654.06;;;20.04;62.03
4143;BME280;2085;51.052;6.958;2022-07-22T09:17:29;101663.38;;;20.23;61.76
4143;BME280;2085;51.052;6.958;2022-07-22T09:19:59;101663.00;;;20.40;61.68
4143;BME280;2085;51.052;6.958;2022-07-22T09:22:34;101657.69;;;20.51;61.66
4143;BME280;2085;51.052;6.958;2022-07-22T09:25:22;101659.41;;;20.63;61.82
4143;BME280;2085;51.052;6.958;2022-07-22T09:27:52;101663.84;;;20.75;61.46
4143;BME280;2085;51.052;6.958;2022-07-22T09:30:21;101654.00;;;20.87;61.85
4143;BME280;2085;51.052;6.958;2022-07-22T09:32:48;101650.22;;;21.01;61.52
4143;BME280;2085;51.052;6.958;2022-07-22T09:35:17;101655.28;;;21.16;61.41
4143;BME280;2085;51.052;6.958;2022-07-22T09:37:51;101660.00;;;21.35;61.53
4143;BME280;2085;51.052;6.958;2022-07-22T09:40:20;101650.47;;;21.53;61.51
4143;BME280;2085;51.052;6.958;2022-07-22T09:42:50;101650.94;;;21.69;61.20
4143;BME280;2085;51.052;6.958;2022-07-22T09:45:18;101650.66;;;21.84;61.18
4143;BME280;2085;51.052;6.958;2022-07-22T09:47:45;101657.66;;;22.07;61.35
4143;BME280;2085;51.052;6.958;2022-07-22T09:50:19;101657.13;;;22.24;61.11
4143;BME280;2085;51.052;6.958;2022-07-22T09:52:47;101652.16;;;22.40;60.86
4143;BME280;2085;51.052;6.958;2022-07-22T09:55:14;101655.63;;;22.52;60.94
4143;BME280;2085;51.052;6.958;2022-07-22T09:57:42;101656.16;;;22.66;60.70
4143;BME280;2085;51.052;6.958;2022-07-22T10:00:09;101650.28;;;22.73;60.79
4143;BME280;2085;51.052;6.958;2022-07-22T10:02:40;101642.38;;;22.71;60.48
4143;BME280;2085;51.052;6.958;2022-07-22T10:05:11;101632.22;;;22.75;60.59
4143;BME280;2085;51.052;6.958;2022-07-22T10:07:41;101632.53;;;22.81;60.44
4143;BME280;2085;51.052;6.958;2022-07-22T10:10:09;101633.53;;;22.80;60.59
4143;BME280;2085;51.052;6.958;2022-07-22T10:12:37;101626.31;;;22.81;60.31
4143;BME280;2085;51.052;6.958;2022-07-22T10:15:05;101619.41;;;22.88;60.45
4143;BME280;2085;51.052;6.958;2022-07-22T10:17:33;101620.19;;;22.99;60.08
4143;BME280;2085;51.052;6.958;2022-07-22T10:20:01;101622.97;;;23.19;59.99
4143;BME280;2085;51.052;6.958;2022-07-22T10:22:49;101610.59;;;23.37;60.21
4143;BME280;2085;51.052;6.958;2022-07-22T10:25:17;101605.97;;;23.48;60.12
4143;BME280;2085;51.052;6.958;2022-07-22T10:27:46;101602.84;;;23.53;59.76
4143;BME280;2085;51.052;6.958;2022-07-22T10:30:14;101606.81;;;23.49;59.83
4143;BME280;2085;51.052;6.958;2022-07-22T10:32:41;101602.28;;;23.49;59.59
4143;BME280;2085;51.052;6.958;2022-07-22T10:35:22;101601.03;;;23.53;59.46
4143;BME280;2085;51.052;6.958;2022-07-22T10:37:55;101601.03;;;23.53;59.73
4143;BME280;2085;51.052;6.958;2022-07-22T10:40:23;101595.34;;;23.56;59.60
4143;BME280;2085;51.052;6.958;2022-07-22T10:43:06;101601.72;;;23.55;59.46
4143;BME280;2085;51.052;6.958;2022-07-22T10:45:37;101605.97;;;23.48;59.88
4143;BME280;2085;51.052;6.958;2022-07-22T10:48:05;101610.16;;;23.41;59.57
4143;BME280;2085;51.052;6.958;2022-07-22T10:50:49;101606.59;;;23.31;59.46
4143;BME280;2085;51.052;6.958;2022-07-22T10:53:19;101606.69;;;23.20;59.27
4143;BME280;2085;51.052;6.958;2022-07-22T10:56:04;101610.63;;;23.16;59.58
4143;BME280;2085;51.052;6.958;2022-07-22T10:58:55;101603.88;;;23.22;59.82
4143;BME280;2085;51.052;6.958;2022-07-22T11:01:25;101605.88;;;23.29;59.63
4143;BME280;2085;51.052;6.958;2022-07-22T11:03:53;101609.81;;;23.25;59.33
4143;BME280;2085;51.052;6.958;2022-07-22T11:06:24;101618.00;;;23.14;59.41
4143;BME280;2085;51.052;6.958;2022-07-22T11:08:54;101614.81;;;22.99;59.46
4143;BME280;2085;51.052;6.958;2022-07-22T11:11:43;101617.19;;;22.93;59.85
4143;BME280;2085;51.052;6.958;2022-07-22T11:14:15;101607.16;;;22.95;59.67
4143;BME280;2085;51.052;6.958;2022-07-22T11:16:42;101609.50;;;23.09;59.83
4143;BME280;2085;51.052;6.958;2022-07-22T11:19:09;101601.88;;;23.24;59.22
4143;BME280;2085;51.052;6.958;2022-07-22T11:21:36;101596.00;;;23.39;59.25
4143;BME280;2085;51.052;6.958;2022-07-22T11:24:06;101590.13;;;23.55;59.32
4143;BME280;2085;51.052;6.958;2022-07-22T11:26:36;101583.22;;;23.72;58.96
4143;BME280;2085;51.052;6.958;2022-07-22T11:29:04;101590.44;;;23.81;58.79
4143;BME280;2085;51.052;6.958;2022-07-22T11:31:31;101581.66;;;23.79;59.10
4143;BME280;2085;51.052;6.958;2022-07-22T11:34:06;101586.06;;;23.80;58.75
4143;BME280;2085;51.052;6.958;2022-07-22T11:36:34;101580.97;;;23.77;58.69
4143;BME280;2085;51.052;6.958;2022-07-22T11:39:01;101581.22;;;23.74;58.69
4143;BME280;2085;51.052;6.958;2022-07-22T11:41:30;101586.91;;;23.71;58.99
4143;BME280;2085;51.052;6.958;2022-07-22T11:43:58;101582.09;;;23.84;59.03
4143;BME280;2085;51.052;6.958;2022-07-22T11:46:26;101587.91;;;24.08;58.75
4143;BME280;2085;51.052;6.958;2022-07-22T11:48:54;101591.19;;;24.21;58.13
4143;BME280;2085;51.052;6.958;2022-07-22T11:51:27;101586.91;;;24.28;58.11
4143;BME280;2085;51.052;6.958;2022-07-22T11:53:55;101579.25;;;24.33;57.98
4143;BME280;2085;51.052;6.958;2022-07-22T11:56:22;101581.38;;;24.39;58.42
4143;BME280;2085;51.052;6.958;2022-07-22T11:58:51;101577.69;;;24.40;58.42
4143;BME280;2085;51.052;6.958;2022-07-22T12:01:20;101575.13;;;24.39;58.58
4143;BME280;2085;51.052;6.958;2022-07-22T12:03:48;101570.19;;;24.34;58.52
4143;BME280;2085;51.052;6.958;2022-07-22T12:06:17;101554.47;;;24.39;58.41
4143;BME280;2085;51.052;6.958;2022-07-22T12:08:46;101551.56;;;24.51;58.08
4143;BME280;2085;51.052;6.958;2022-07-22T12:11:15;101560.59;;;24.69;58.43
4143;BME280;2085;51.052;6.958;2022-07-22T12:13:43;101560.81;;;24.85;58.22
4143;BME280;2085;51.052;6.958;2022-07-22T12:16:19;101551.44;;;24.99;57.88
4143;BME280;2085;51.052;6.958;2022-07-22T12:18:55;101555.44;;;24.95;57.35
4143;BME280;2085;51.052;6.958;2022-07-22T12:21:23;101550.81;;;24.68;57.19
4143;BME280;2085;51.052;6.958;2022-07-22T12:23:51;101545.78;;;24.45;57.62
4143;BME280;2085;51.052;6.958;2022-07-22T12:26:18;101545.44;;;24.21;57.45
4143;BME280;2085;51.052;6.958;2022-07-22T12:28:45;101539.47;;;24.08;58.04
4143;BME280;2085;51.052;6.958;2022-07-22T12:31:11;101540.47;;;24.17;57.97
4143;BME280;2085;51.052;6.958;2022-07-22T12:33:47;101533.91;;;24.38;57.93
4143;BME280;2085;51.052;6.958;2022-07-22T12:36:14;101539.97;;;24.50;57.25
4143;BME280;2085;51.052;6.958;2022-07-22T12:38:41;101533.59;;;24.51;57.53
4143;BME280;2085;51.052;6.958;2022-07-22T12:41:28;101532.22;;;24.37;56.99
4143;BME280;2085;51.052;6.958;2022-07-22T12:43:55;101538.34;;;24.30;57.57
4143;BME280;2085;51.052;6.958;2022-07-22T12:46:22;101536.59;;;24.38;57.22
4143;BME280;2085;51.052;6.958;2022-07-22T12:48:52;101529.25;;;24.40;57.00
4143;BME280;2085;51.052;6.958;2022-07-22T12:51:18;101533.50;;;24.33;56.88
4143;BME280;2085;51.052;6.958;2022-07-22T12:53:45;101524.03;;;24.29;57.10
4143;BME280;2085;51.052;6.958;2022-07-22T12:56:12;101524.56;;;24.33;57.30
4143;BME280;2085;51.052;6.958;2022-07-22T12:58:38;101533.19;;;24.46;57.29
4143;BME280;2085;51.052;6.958;2022-07-22T13:01:07;101530.28;;;24.67;57.22
4143;BME280;2085;51.052;6.958;2022-07-22T13:03:35;101512.34;;;24.85;56.99
4143;BME280;2085;51.052;6.958;2022-07-22T13:06:04;101499.81;;;25.03;57.04
4143;BME280;2085;51.052;6.958;2022-07-22T13:08:32;101504.88;;;25.06;56.40
4143;BME280;2085;51.052;6.958;2022-07-22T13:10:59;101504.34;;;25.03;56.47
4143;BME280;2085;51.052;6.958;2022-07-22T13:13:25;101501.25;;;24.98;56.19